Time;durP1;ratioP1;P1;durP2;ratioP2;P2;SDS_P1;SDS_P2;PMS_P1;PMS_P2;Temp;Humidity;BMP_temperature;BMP_pressure;BME280_temperature;BME280_humidity;BME280_pressure;Samples;Min_cycle;Max_cycle;Signal;HPM_P1;HPM_P2
2022/01/28 00:00:30;;;;;;;;;;;;;;;1.89;71.71;100999.00;5001683;28;19922;-85
2022/01/28 00:03:07;;;;;;;;;;;;;;;1.89;71.50;101002.50;4984848;28;19925;-85
2022/01/28 00:05:34;;;;;;;;;;;;;;;1.86;71.58;101012.91;5000814;28;19918;-86
2022/01/28 00:07:59;;;;;;;;;;;;;;;1.80;71.83;101023.28;5002629;28;19940;-86
2022/01/28 00:10:26;;;;;;;;;;;;;;;1.78;71.83;101044.16;5001625;28;19918;-85
2022/01/28 00:36:47;;;;;;;;;;;;;;;1.79;71.31;101024.16;5000231;28;20134;-85
2022/01/28 04:22:43;;;;;;;;;;;;;;;2.85;96.34;101184.09;5228173;23;19934;-84
2022/01/28 04:25:09;;;;;;;;;;;;;;;2.71;96.23;101176.97;5000920;28;20383;-87
2022/01/28 04:27:34;;;;;;;;;;;;;;;2.68;96.00;101182.19;5001997;28;19917;-87
2022/01/28 04:29:59;;;;;;;;;;;;;;;2.56;95.63;101196.84;5002006;28;19917;-85
2022/01/28 04:32:27;;;;;;;;;;;;;;;2.60;95.50;101199.53;5002488;28;19921;-84
2022/01/28 04:34:55;;;;;;;;;;;;;;;2.58;95.28;101216.06;5003129;28;20359;-87
2022/01/28 04:37:33;;;;;;;;;;;;;;;2.56;94.98;101207.31;5000678;28;19930;-84
2022/01/28 04:40:10;;;;;;;;;;;;;;;2.49;94.66;101214.19;5001948;28;19923;-84
2022/01/28 04:45:29;;;;;;;;;;;;;;;2.39;93.78;101222.78;5001694;28;19922;-84
2022/01/28 04:55:40;;;;;;;;;;;;;;;2.30;92.46;101249.72;5002497;28;20000;-84
2022/01/28 04:58:20;;;;;;;;;;;;;;;2.27;92.48;101258.38;5001665;28;19928;-85
2022/01/28 05:11:35;;;;;;;;;;;;;;;2.33;93.73;101260.19;5005253;28;19922;-83
2022/01/28 05:27:18;;;;;;;;;;;;;;;2.08;92.62;101253.75;5005406;28;19925;-84
2022/01/28 08:44:57;;;;;;;;;;;;;;;1.21;81.28;101507.28;4988323;28;19936;-84
2022/01/28 08:47:22;;;;;;;;;;;;;;;1.19;81.31;101512.47;4984723;28;19922;-84
2022/01/28 08:49:48;;;;;;;;;;;;;;;1.23;81.29;101514.34;4996150;28;19917;-84
2022/01/28 08:52:13;;;;;;;;;;;;;;;1.24;81.17;101515.19;4996045;28;19918;-85
2022/01/28 08:54:40;;;;;;;;;;;;;;;1.26;81.03;101514.41;4994339;28;19917;-84
2022/01/28 08:57:05;;;;;;;;;;;;;;;1.24;80.78;101512.59;4994900;28;19968;-84
2022/01/28 08:59:30;;;;;;;;;;;;;;;1.23;80.68;101513.47;4996160;28;20392;-85
2022/01/28 09:01:55;;;;;;;;;;;;;;;1.27;80.70;101516.16;4995873;28;19928;-84
2022/01/28 09:04:21;;;;;;;;;;;;;;;1.26;80.38;101518.72;4996026;28;19922;-85
2022/01/28 09:06:46;;;;;;;;;;;;;;;1.27;80.25;101526.59;4996006;28;19928;-84
2022/01/28 09:09:11;;;;;;;;;;;;;;;1.30;80.10;101530.16;4995805;28;19924;-84
2022/01/28 09:14:22;;;;;;;;;;;;;;;1.30;80.22;101530.16;4994397;28;19928;-84
2022/01/28 09:16:47;;;;;;;;;;;;;;;1.30;80.24;101536.25;4995821;28;19926;-83
2022/01/28 09:19:13;;;;;;;;;;;;;;;1.29;80.01;101534.47;4994493;28;19972;-84
2022/01/28 09:21:38;;;;;;;;;;;;;;;1.32;80.02;101539.75;4995698;28;19918;-84
2022/01/28 09:24:04;;;;;;;;;;;;;;;1.33;79.76;101540.66;4995574;28;19925;-84
2022/01/28 09:26:29;;;;;;;;;;;;;;;1.32;79.84;101551.94;4977549;28;19918;-84
2022/01/28 09:28:54;;;;;;;;;;;;;;;1.31;79.42;101548.47;4994151;28;20057;-84
2022/01/28 09:31:20;;;;;;;;;;;;;;;1.33;79.51;101559.81;4995527;28;19922;-84
2022/01/28 09:33:45;;;;;;;;;;;;;;;1.38;79.96;101559.94;4977443;28;19917;-84
2022/01/28 09:36:10;;;;;;;;;;;;;;;1.37;79.64;101579.97;4995332;28;19922;-84
2022/01/28 09:38:36;;;;;;;;;;;;;;;1.39;79.30;101573.03;4995342;28;19964;-85
2022/01/28 09:41:03;;;;;;;;;;;;;;;1.42;79.22;101575.72;4977165;28;19933;-84
2022/01/28 09:43:28;;;;;;;;;;;;;;;1.41;79.05;101579.16;4994057;28;19918;-84
2022/01/28 09:45:54;;;;;;;;;;;;;;;1.39;79.10;101582.59;4995075;28;19949;-84
2022/01/28 09:48:19;;;;;;;;;;;;;;;1.43;78.88;101581.81;4994993;28;20064;-84
2022/01/28 09:50:46;;;;;;;;;;;;;;;1.40;78.53;101582.59;4995061;28;19953;-84
2022/01/28 09:53:11;;;;;;;;;;;;;;;1.46;78.46;101584.50;4994871;28;20292;-84
2022/01/28 09:55:37;;;;;;;;;;;;;;;1.45;78.13;101585.34;4976922;28;20000;-84
2022/01/28 09:58:02;;;;;;;;;;;;;;;1.43;77.83;101579.19;4993881;28;20372;-84
2022/01/28 10:00:29;;;;;;;;;;;;;;;1.48;77.79;101582.78;4993839;28;19917;-84
2022/01/28 10:02:59;;;;;;;;;;;;;;;1.50;77.56;101591.56;4994869;28;20361;-84
2022/01/28 10:05:27;;;;;;;;;;;;;;;1.54;77.71;101584.69;4994746;28;19918;-84
2022/01/28 10:07:59;;;;;;;;;;;;;;;1.59;77.58;101575.22;4994784;28;19918;-84
2022/01/28 10:10:24;;;;;;;;;;;;;;;1.58;77.56;101573.44;4994384;28;20432;-84
2022/01/28 10:13:07;;;;;;;;;;;;;;;1.59;77.59;101581.31;4993186;28;20037;-85
2022/01/28 10:15:32;;;;;;;;;;;;;;;1.61;77.76;101584.84;4994882;28;20329;-84
2022/01/28 10:18:00;;;;;;;;;;;;;;;1.61;77.67;101577.03;4994730;28;19918;-85
2022/01/28 10:20:26;;;;;;;;;;;;;;;1.60;77.33;101575.25;4994510;28;19927;-84
2022/01/28 10:22:57;;;;;;;;;;;;;;;1.58;77.24;101569.09;4994657;28;19929;-85
2022/01/28 10:25:34;;;;;;;;;;;;;;;1.61;77.33;101574.41;4993698;28;19956;-85
2022/01/28 10:28:04;;;;;;;;;;;;;;;1.62;77.05;101570.91;4992465;28;20285;-84
2022/01/28 10:30:30;;;;;;;;;;;;;;;1.62;76.99;101572.66;4976282;28;19972;-85
2022/01/28 10:33:16;;;;;;;;;;;;;;;1.68;77.31;101582.38;4994296;28;19921;-85
2022/01/28 10:35:49;;;;;;;;;;;;;;;1.67;77.12;101578.00;4994151;28;19922;-84
2022/01/28 10:38:26;;;;;;;;;;;;;;;1.69;77.13;101582.41;4993628;28;19928;-84
2022/01/28 10:41:10;;;;;;;;;;;;;;;1.73;77.35;101578.13;4994370;28;19922;-84
2022/01/28 10:43:41;;;;;;;;;;;;;;;1.75;77.07;101582.53;4992778;28;19933;-85
2022/01/28 10:46:07;;;;;;;;;;;;;;;1.69;76.79;101576.28;4993710;28;19921;-85
2022/01/28 10:48:32;;;;;;;;;;;;;;;1.72;76.56;101574.63;4976164;28;20380;-84
2022/01/28 10:50:58;;;;;;;;;;;;;;;1.76;76.29;101571.22;4994019;28;19917;-85
2022/01/28 10:53:27;;;;;;;;;;;;;;;1.78;76.22;101566.91;4993821;28;20008;-84
2022/01/28 10:55:54;;;;;;;;;;;;;;;1.78;76.32;101573.88;4993952;28;19940;-84
2022/01/28 10:58:21;;;;;;;;;;;;;;;1.81;76.36;101566.09;4992174;28;19925;-85
2022/01/28 11:00:47;;;;;;;;;;;;;;;1.79;76.38;101562.59;4992991;28;19928;-84
2022/01/28 11:03:14;;;;;;;;;;;;;;;1.78;76.22;101563.44;4993751;28;19918;-84
2022/01/28 11:05:40;;;;;;;;;;;;;;;1.79;76.05;101562.59;4993768;28;20344;-85
2022/01/28 11:08:07;;;;;;;;;;;;;;;1.80;75.81;101556.50;4993653;28;20380;-86
2022/01/28 11:10:32;;;;;;;;;;;;;;;1.85;75.94;101561.81;4992602;28;20285;-86
2022/01/28 11:12:58;;;;;;;;;;;;;;;1.93;76.18;101553.31;4974087;28;19921;-85
2022/01/28 11:15:24;;;;;;;;;;;;;;;1.83;75.85;101559.16;4992416;28;19925;-84
2022/01/28 11:17:50;;;;;;;;;;;;;;;1.86;75.76;101558.38;4993481;28;20455;-84
2022/01/28 11:20:20;;;;;;;;;;;;;;;1.89;75.73;101553.22;4975223;28;20274;-87
2022/01/28 11:22:56;;;;;;;;;;;;;;;1.89;76.01;101542.75;4992732;28;19949;-84
2022/01/28 11:25:35;;;;;;;;;;;;;;;1.93;76.38;101550.69;4992821;28;20333;-85
2022/01/28 11:28:11;;;;;;;;;;;;;;;1.91;75.92;101549.75;4991819;28;19953;-84
2022/01/28 11:30:45;;;;;;;;;;;;;;;1.91;75.54;101554.97;4992464;28;20012;-84
2022/01/28 11:33:11;;;;;;;;;;;;;;;1.90;75.24;101545.41;4993089;28;19971;-85
2022/01/28 11:35:40;;;;;;;;;;;;;;;1.94;75.00;101547.19;4993090;28;19922;-85
2022/01/28 11:38:23;;;;;;;;;;;;;;;1.95;75.08;101551.59;4991286;28;20356;-84
2022/01/28 11:40:53;;;;;;;;;;;;;;;2.00;74.85;101549.06;4993136;28;19922;-85
2022/01/28 11:43:19;;;;;;;;;;;;;;;2.02;75.30;101541.25;4990918;28;19917;-87
2022/01/28 11:45:44;;;;;;;;;;;;;;;2.02;75.64;101543.88;4992920;28;19922;-86
2022/01/28 11:48:09;;;;;;;;;;;;;;;2.04;75.57;101543.03;4991846;28;20412;-84
2022/01/28 11:50:35;;;;;;;;;;;;;;;2.07;75.84;101534.38;4992845;28;19918;-85
2022/01/28 11:53:00;;;;;;;;;;;;;;;2.07;75.93;101535.25;4992324;28;19928;-85
2022/01/28 11:55:26;;;;;;;;;;;;;;;2.10;76.45;101537.94;4991471;28;19963;-85
2022/01/28 11:57:52;;;;;;;;;;;;;;;2.11;76.15;101538.84;4991624;28;19926;-85
2022/01/28 12:00:18;;;;;;;;;;;;;;;2.08;75.75;101528.31;4991961;28;20326;-84
2022/01/28 12:02:48;;;;;;;;;;;;;;;2.07;75.17;101529.16;4992615;28;19918;-85
2022/01/28 12:05:25;;;;;;;;;;;;;;;2.08;75.03;101529.19;4992809;28;19964;-87
2022/01/28 12:07:52;;;;;;;;;;;;;;;2.12;75.37;101527.50;4992297;28;20369;-85
2022/01/28 12:10:18;;;;;;;;;;;;;;;2.12;75.20;101530.13;4991612;28;19918;-85
2022/01/28 12:12:49;;;;;;;;;;;;;;;2.15;75.02;101517.09;4990541;28;20273;-84
2022/01/28 12:15:17;;;;;;;;;;;;;;;2.18;74.90;101530.25;4992597;28;19924;-84
2022/01/28 12:17:44;;;;;;;;;;;;;;;2.20;74.88;101525.03;4992533;28;20066;-85
2022/01/28 12:20:11;;;;;;;;;;;;;;;2.23;75.44;101532.97;4991697;28;19918;-86
2022/01/28 12:22:56;;;;;;;;;;;;;;;2.26;75.80;101535.63;4992225;28;19918;-85
2022/01/28 12:25:36;;;;;;;;;;;;;;;2.25;75.75;101545.22;4992241;28;19965;-86
2022/01/28 12:28:22;;;;;;;;;;;;;;;2.24;75.44;101540.84;4990982;28;19972;-86
2022/01/28 12:30:49;;;;;;;;;;;;;;;2.27;75.42;101548.75;4992518;28;19918;-85
2022/01/28 12:33:15;;;;;;;;;;;;;;;2.31;75.46;101558.44;4992638;28;19921;-85
2022/01/28 12:35:43;;;;;;;;;;;;;;;2.34;75.85;101540.13;4991662;28;19918;-84
2022/01/28 12:38:11;;;;;;;;;;;;;;;2.32;75.63;101539.25;4992412;28;19924;-85
2022/01/28 12:40:36;;;;;;;;;;;;;;;2.34;75.25;101536.66;4992228;28;19918;-85
2022/01/28 12:43:02;;;;;;;;;;;;;;;2.38;75.46;101530.63;4991068;28;19933;-86
2022/01/28 12:45:28;;;;;;;;;;;;;;;2.38;75.30;101514.03;4991760;28;19921;-86
2022/01/28 12:47:53;;;;;;;;;;;;;;;2.36;75.36;101517.53;4992325;28;19932;-85
2022/01/28 12:50:19;;;;;;;;;;;;;;;2.46;75.79;101512.47;4992254;28;20365;-84
2022/01/28 12:52:45;;;;;;;;;;;;;;;2.71;77.78;101506.81;4992144;28;19918;-86
2022/01/28 12:55:12;;;;;;;;;;;;;;;2.86;80.02;101511.41;4992435;28;20365;-86
2022/01/28 12:57:41;;;;;;;;;;;;;;;2.93;82.01;101509.75;4989607;28;19938;-85
2022/01/28 13:00:07;;;;;;;;;;;;;;;2.97;83.95;101518.53;4974051;28;19922;-86
2022/01/28 13:02:33;;;;;;;;;;;;;;;2.97;85.69;101506.34;4992055;28;19918;-85
2022/01/28 13:10:21;;;;;;;;;;;;;;;2.95;89.31;101502.78;4991915;28;19972;-88
2022/01/28 13:12:47;;;;;;;;;;;;;;;2.91;90.20;101504.50;4990534;28;20377;-85
2022/01/28 13:15:13;;;;;;;;;;;;;;;2.86;91.43;101494.81;4992130;28;19918;-85
2022/01/28 13:17:39;;;;;;;;;;;;;;;2.89;92.52;101489.63;4991977;28;19921;-88
2022/01/28 13:20:06;;;;;;;;;;;;;;;2.82;93.38;101487.75;4992148;28;19928;-85
2022/01/28 13:22:31;;;;;;;;;;;;;;;2.78;94.57;101493.81;4991636;28;19928;-86
2022/01/28 13:24:57;;;;;;;;;;;;;;;2.78;96.31;101491.19;4995625;28;19918;-87
2022/01/28 13:27:36;;;;;;;;;;;;;;;2.85;97.68;101493.03;4991660;28;19918;-86
2022/01/28 13:30:12;;;;;;;;;;;;;;;3.00;99.53;101500.25;4992758;28;19922;-86
2022/01/28 13:32:40;;;;;;;;;;;;;;;3.22;100.00;101498.84;4995186;28;19929;-84
2022/01/28 13:35:10;;;;;;;;;;;;;;;3.35;100.00;101492.94;4976695;28;19942;-85
2022/01/28 13:37:41;;;;;;;;;;;;;;;3.45;100.00;101494.81;4986280;28;20273;-88
2022/01/28 13:40:18;;;;;;;;;;;;;;;3.57;100.00;101503.69;4994791;28;19928;-86
2022/01/28 13:42:56;;;;;;;;;;;;;;;3.66;100.00;101501.19;4991561;28;19914;-86
2022/01/28 13:45:43;;;;;;;;;;;;;;;3.71;100.00;101493.41;4993610;28;20303;-86
2022/01/28 13:48:09;;;;;;;;;;;;;;;3.77;100.00;101494.34;4994206;28;19929;-87
2022/01/28 13:50:41;;;;;;;;;;;;;;;3.85;100.00;101506.69;4993819;28;19922;-86
2022/01/28 13:55:52;;;;;;;;;;;;;;;3.92;100.00;101498.88;4994283;28;20290;-85
2022/01/28 13:58:18;;;;;;;;;;;;;;;3.97;100.00;101496.31;4993646;28;19926;-86
2022/01/28 14:00:44;;;;;;;;;;;;;;;4.02;100.00;101494.66;4994942;28;19922;-86
2022/01/28 14:03:20;;;;;;;;;;;;;;;4.08;100.00;101494.69;4994617;28;20016;-87
2022/01/28 14:05:49;;;;;;;;;;;;;;;4.10;100.00;101485.13;4993977;28;19925;-88
2022/01/28 14:08:14;;;;;;;;;;;;;;;4.13;100.00;101481.63;4994717;28;19918;-88
2022/01/28 14:10:40;;;;;;;;;;;;;;;4.18;100.00;101474.72;4994675;28;19928;-86
2022/01/28 14:13:22;;;;;;;;;;;;;;;4.21;100.00;101487.84;4993059;28;19949;-86
2022/01/28 14:16:04;;;;;;;;;;;;;;;4.26;100.00;101477.38;4976484;28;19921;-88
2022/01/28 14:18:30;;;;;;;;;;;;;;;4.28;100.00;101475.69;4994675;28;19918;-88
2022/01/28 14:20:56;;;;;;;;;;;;;;;4.30;100.00;101473.94;4992665;28;20467;-84
2022/01/28 14:23:21;;;;;;;;;;;;;;;4.32;100.00;101477.44;4993895;28;20398;-87
2022/01/28 14:25:46;;;;;;;;;;;;;;;4.06;100.00;101472.81;4994516;28;19969;-88
2022/01/28 14:28:24;;;;;;;;;;;;;;;3.29;100.00;101471.88;4975760;28;20365;-88
2022/01/28 14:31:06;;;;;;;;;;;;;;;2.98;100.00;101474.03;4994426;28;19960;-86
2022/01/28 14:33:31;;;;;;;;;;;;;;;2.80;100.00;101472.03;4993780;28;19929;-87
2022/01/28 14:35:56;;;;;;;;;;;;;;;2.66;100.00;101470.91;4993939;28;19917;-88
2022/01/28 14:38:21;;;;;;;;;;;;;;;2.63;100.00;101468.25;4994289;28;19914;-88
2022/01/28 14:40:47;;;;;;;;;;;;;;;2.55;100.00;101473.34;4994178;28;20404;-87
2022/01/28 14:43:12;;;;;;;;;;;;;;;2.53;99.96;101469.84;4992913;28;20296;-86
2022/01/28 14:45:37;;;;;;;;;;;;;;;2.56;99.11;101469.03;4968539;28;19922;-88
2022/01/28 14:48:03;;;;;;;;;;;;;;;2.49;98.26;101463.69;4967219;28;19918;-87
2022/01/28 14:50:28;;;;;;;;;;;;;;;2.49;97.47;101462.78;4984009;28;20289;-86
2022/01/28 14:52:53;;;;;;;;;;;;;;;2.44;96.92;101465.34;4983882;28;19922;-87
2022/01/28 14:55:19;;;;;;;;;;;;;;;2.38;96.21;101466.94;4984032;28;19918;-86
2022/01/28 14:57:44;;;;;;;;;;;;;;;2.34;95.74;101464.28;4981463;28;20071;-85
2022/01/28 15:00:10;;;;;;;;;;;;;;;2.31;95.20;101472.09;4984555;28;19972;-85
2022/01/28 15:02:36;;;;;;;;;;;;;;;2.33;94.52;101474.72;4984278;28;19928;-84
2022/01/28 15:05:01;;;;;;;;;;;;;;;2.28;93.83;101473.75;4983821;28;19918;-86
2022/01/28 15:07:30;;;;;;;;;;;;;;;2.24;93.18;101472.81;4983839;28;19918;-84
2022/01/28 15:09:58;;;;;;;;;;;;;;;2.16;92.95;101474.41;4983064;28;20194;-85
2022/01/28 15:12:24;;;;;;;;;;;;;;;2.12;92.42;101469.97;4972696;28;19928;-86
2022/01/28 15:14:50;;;;;;;;;;;;;;;2.21;92.12;101478.00;4983584;28;20012;-86
2022/01/28 15:17:16;;;;;;;;;;;;;;;2.16;91.57;101480.53;4983634;28;19914;-85
2022/01/28 15:19:42;;;;;;;;;;;;;;;2.12;91.08;101485.66;4982503;28;19922;-86
2022/01/28 15:22:07;;;;;;;;;;;;;;;2.07;90.71;101482.97;4983681;28;20001;-86
2022/01/28 15:24:32;;;;;;;;;;;;;;;2.05;90.25;101479.44;4984031;28;19972;-85
2022/01/28 15:26:57;;;;;;;;;;;;;;;2.02;89.95;101475.91;4974161;28;19922;-86
2022/01/28 15:37:04;;;;;;;;;;;;;;;2.00;88.11;101483.72;4983241;28;19918;-87
2022/01/28 15:39:35;;;;;;;;;;;;;;;1.90;87.86;101487.88;4983378;28;19918;-84
2022/01/28 15:42:01;;;;;;;;;;;;;;;1.90;87.75;101493.09;4983475;28;19953;-86
2022/01/28 15:44:26;;;;;;;;;;;;;;;1.86;87.50;101483.44;4985588;28;19926;-88
2022/01/28 15:46:53;;;;;;;;;;;;;;;1.84;87.28;101486.88;4992672;28;20439;-84
2022/01/28 15:49:18;;;;;;;;;;;;;;;1.79;87.06;101479.81;4993017;28;19918;-87
2022/01/28 15:51:44;;;;;;;;;;;;;;;1.82;86.86;101484.25;4991831;28;19925;-84
2022/01/28 15:54:11;;;;;;;;;;;;;;;1.81;86.66;101479.84;4974819;28;20369;-85
2022/01/28 15:56:36;;;;;;;;;;;;;;;1.78;86.50;101492.84;4974784;28;20400;-87
2022/01/28 15:59:01;;;;;;;;;;;;;;;1.75;86.26;101493.66;4991382;28;19918;-87
2022/01/28 16:01:28;;;;;;;;;;;;;;;1.79;86.17;101494.63;4992649;28;19922;-87
2022/01/28 16:03:53;;;;;;;;;;;;;;;1.72;86.13;101496.22;4991816;28;19924;-89
2022/01/28 16:06:19;;;;;;;;;;;;;;;1.72;86.04;101500.56;4992672;28;19917;-86
2022/01/28 16:08:44;;;;;;;;;;;;;;;1.74;85.91;101498.84;4992496;28;19972;-84
2022/01/28 16:18:35;;;;;;;;;;;;;;;1.65;85.74;101504.78;4992743;28;19914;-86
2022/01/28 16:21:01;;;;;;;;;;;;;;;1.70;85.54;101505.75;4992515;28;19921;-87
2022/01/28 16:23:26;;;;;;;;;;;;;;;1.67;85.49;101510.06;4992608;28;19989;-86
2022/01/28 16:25:55;;;;;;;;;;;;;;;1.67;85.18;101510.06;4992372;28;19984;-85
2022/01/28 16:28:20;;;;;;;;;;;;;;;1.57;85.14;101514.19;4973068;28;20373;-86
2022/01/28 16:30:47;;;;;;;;;;;;;;;1.54;84.92;101507.16;4992421;28;19964;-83
2022/01/28 16:33:12;;;;;;;;;;;;;;;1.57;84.79;101515.06;4990705;28;19926;-83
2022/01/28 16:35:39;;;;;;;;;;;;;;;1.60;84.83;101522.09;4992056;28;19928;-83
2022/01/28 16:38:05;;;;;;;;;;;;;;;1.54;84.79;101515.00;4991523;28;19924;-84
2022/01/28 16:40:31;;;;;;;;;;;;;;;1.59;84.75;101518.59;4991980;28;19922;-85
2022/01/28 16:43:02;;;;;;;;;;;;;;;1.54;84.54;101515.00;4990327;28;19973;-86
2022/01/28 16:45:28;;;;;;;;;;;;;;;1.50;84.50;101515.81;4973191;28;19921;-85
2022/01/28 16:47:53;;;;;;;;;;;;;;;1.50;84.69;101509.69;4990879;28;20013;-84
2022/01/28 16:50:19;;;;;;;;;;;;;;;1.51;84.44;101516.69;4991756;28;19934;-86
2022/01/28 16:52:44;;;;;;;;;;;;;;;1.47;84.29;101518.34;4971838;28;19922;-86
2022/01/28 16:55:17;;;;;;;;;;;;;;;1.57;84.24;101528.13;4972814;28;19996;-86
2022/01/28 16:57:43;;;;;;;;;;;;;;;1.51;84.08;101524.50;4973909;28;20609;-86
2022/01/28 17:00:08;;;;;;;;;;;;;;;1.47;84.21;101525.28;4993123;28;19921;-85
2022/01/28 17:02:34;;;;;;;;;;;;;;;1.59;84.20;101522.94;4993379;28;19985;-85
2022/01/28 17:04:59;;;;;;;;;;;;;;;1.48;83.88;101522.69;4994687;28;19968;-86
2022/01/28 17:07:25;;;;;;;;;;;;;;;1.48;83.74;101527.06;4976719;28;19925;-84
2022/01/28 17:10:01;;;;;;;;;;;;;;;1.49;83.59;101528.84;4995575;28;19922;-86
2022/01/28 17:14:52;;;;;;;;;;;;;;;1.48;83.63;101527.94;4995050;28;19981;-85
2022/01/28 17:17:17;;;;;;;;;;;;;;;1.48;83.52;101535.75;4994501;28;19924;-84
2022/01/28 17:19:43;;;;;;;;;;;;;;;1.43;83.78;101526.94;4993775;28;20012;-84
2022/01/28 17:22:08;;;;;;;;;;;;;;;1.39;83.62;101531.22;4995136;28;19926;-85
2022/01/28 17:24:36;;;;;;;;;;;;;;;1.41;83.60;101534.75;4994601;28;19925;-85
2022/01/28 17:27:02;;;;;;;;;;;;;;;1.41;83.59;101534.75;4995055;28;19922;-85
2022/01/28 17:29:27;;;;;;;;;;;;;;;1.40;83.32;101543.44;4994263;28;19925;-86
2022/01/28 17:31:52;;;;;;;;;;;;;;;1.39;83.37;101535.59;4995020;28;19925;-85
2022/01/28 17:34:18;;;;;;;;;;;;;;;1.38;83.26;101544.25;4994718;28;19948;-85
2022/01/28 17:36:43;;;;;;;;;;;;;;;1.39;83.28;101543.41;4995130;28;19926;-84
2022/01/28 17:39:09;;;;;;;;;;;;;;;1.39;83.38;101540.81;4994349;28;19921;-84
2022/01/28 17:41:35;;;;;;;;;;;;;;;1.37;83.08;101547.72;4995157;28;20476;-85
2022/01/28 17:44:00;;;;;;;;;;;;;;;1.30;83.12;101538.84;4993620;28;19929;-84
2022/01/28 17:46:25;;;;;;;;;;;;;;;1.29;83.16;101538.81;4994499;28;19929;-85
2022/01/28 17:48:51;;;;;;;;;;;;;;;1.36;83.23;101535.50;4994236;28;19918;-84
2022/01/28 17:51:16;;;;;;;;;;;;;;;1.32;83.17;101541.50;4993529;28;20078;-84
2022/01/28 17:53:43;;;;;;;;;;;;;;;1.31;83.20;101542.34;4994527;28;19925;-85
2022/01/28 17:56:08;;;;;;;;;;;;;;;1.36;83.13;101546.84;4973753;28;20028;-84
2022/01/28 17:58:34;;;;;;;;;;;;;;;1.27;82.88;101541.38;4974874;28;20101;-85
2022/01/28 18:00:59;;;;;;;;;;;;;;;1.29;82.95;101534.47;4974936;28;19922;-84
2022/01/28 18:03:24;;;;;;;;;;;;;;;1.31;82.92;101542.34;4994809;28;19926;-85
2022/01/28 18:05:50;;;;;;;;;;;;;;;1.33;82.64;101525.00;4994303;28;20361;-84
2022/01/28 18:08:15;;;;;;;;;;;;;;;1.33;82.75;101536.31;4993882;28;19980;-87
2022/01/28 18:10:40;;;;;;;;;;;;;;;1.30;82.73;101524.91;4993962;28;20021;-86
2022/01/28 18:13:06;;;;;;;;;;;;;;;1.32;82.74;101523.22;4992732;28;19932;-86
2022/01/28 18:15:32;;;;;;;;;;;;;;;1.27;82.60;101531.81;4994504;28;20473;-85
2022/01/28 18:17:58;;;;;;;;;;;;;;;1.30;82.68;101530.16;4975886;28;20366;-86
2022/01/28 18:20:23;;;;;;;;;;;;;;;1.32;82.71;101524.09;4993166;28;20005;-87
2022/01/28 18:22:48;;;;;;;;;;;;;;;1.27;82.71;101518.75;4994571;28;20000;-86
2022/01/28 18:25:13;;;;;;;;;;;;;;;1.29;82.80;101524.03;4975587;28;19993;-85
2022/01/28 18:27:39;;;;;;;;;;;;;;;1.25;82.72;101525.69;4993154;28;20285;-85
2022/01/28 18:30:05;;;;;;;;;;;;;;;1.32;82.67;101520.59;4993783;28;19968;-85
2022/01/28 18:32:31;;;;;;;;;;;;;;;1.25;82.44;101523.06;4992514;28;19928;-86
2022/01/28 18:34:56;;;;;;;;;;;;;;;1.29;82.67;101528.38;4994222;28;19921;-85
2022/01/28 18:37:21;;;;;;;;;;;;;;;1.26;82.46;101522.25;4993546;28;19925;-85
2022/01/28 18:39:46;;;;;;;;;;;;;;;1.24;82.38;101521.28;4993876;28;20061;-84
2022/01/28 18:42:20;;;;;;;;;;;;;;;1.24;82.34;101526.53;4993008;28;20270;-84
2022/01/28 18:44:49;;;;;;;;;;;;;;;1.30;82.27;101527.53;4993578;28;20373;-85
2022/01/28 18:47:16;;;;;;;;;;;;;;;1.33;82.13;101530.22;4975238;28;19929;-86
2022/01/28 18:49:43;;;;;;;;;;;;;;;1.26;81.95;101529.16;4993568;28;19922;-85
2022/01/28 18:52:09;;;;;;;;;;;;;;;1.25;82.00;101533.53;4992126;28;19921;-86
2022/01/28 18:54:35;;;;;;;;;;;;;;;1.23;81.77;101529.13;4991439;28;20309;-86
2022/01/28 18:57:00;;;;;;;;;;;;;;;1.24;81.70;101525.66;4993097;28;19932;-86
2022/01/28 18:59:26;;;;;;;;;;;;;;;1.27;81.63;101533.56;4991886;28;19921;-86
2022/01/28 19:01:53;;;;;;;;;;;;;;;1.24;81.59;101526.53;4992807;28;20570;-85
2022/01/28 19:04:20;;;;;;;;;;;;;;;1.27;81.73;101521.38;4993266;28;20381;-89
2022/01/28 19:06:46;;;;;;;;;;;;;;;1.27;81.59;101521.38;4992929;28;19965;-85
2022/01/28 19:09:11;;;;;;;;;;;;;;;1.29;81.56;101523.16;4993173;28;19957;-86
2022/01/28 19:11:38;;;;;;;;;;;;;;;1.29;81.54;101520.53;4992292;28;19996;-85
2022/01/28 19:14:05;;;;;;;;;;;;;;;1.32;81.62;101518.88;4991366;28;19976;-88
2022/01/28 19:16:31;;;;;;;;;;;;;;;1.27;81.58;101521.38;4992294;28;20341;-86
2022/01/28 19:18:57;;;;;;;;;;;;;;;1.29;81.54;101516.19;4990387;28;19918;-88
2022/01/28 19:21:22;;;;;;;;;;;;;;;1.30;81.45;101510.13;4992333;28;20278;-86
2022/01/28 19:23:47;;;;;;;;;;;;;;;1.30;81.50;101520.56;4992082;28;19921;-87
2022/01/28 19:26:13;;;;;;;;;;;;;;;1.30;81.55;101507.50;4972505;28;19925;-85
2022/01/28 19:28:38;;;;;;;;;;;;;;;1.30;81.53;101510.13;4992075;28;20285;-86
2022/01/28 19:31:03;;;;;;;;;;;;;;;1.33;81.47;101510.19;4992830;28;19925;-87
2022/01/28 19:33:29;;;;;;;;;;;;;;;1.33;81.51;101507.59;4974185;28;20357;-84
2022/01/28 19:35:54;;;;;;;;;;;;;;;1.33;81.40;101509.31;4992029;28;20005;-87
2022/01/28 19:38:19;;;;;;;;;;;;;;;1.33;81.23;101517.16;4992420;28;19936;-85
2022/01/28 19:40:47;;;;;;;;;;;;;;;1.32;80.97;101520.59;4992351;28;19985;-85
2022/01/28 19:43:12;;;;;;;;;;;;;;;1.33;80.83;101507.59;4982948;28;19981;-86
2022/01/28 19:45:42;;;;;;;;;;;;;;;1.35;80.63;101523.28;4992599;28;19922;-84
2022/01/28 19:48:07;;;;;;;;;;;;;;;1.33;80.47;101527.59;4992452;28;20270;-84
2022/01/28 19:50:32;;;;;;;;;;;;;;;1.33;80.41;101520.66;4973396;28;19933;-86
2022/01/28 19:52:58;;;;;;;;;;;;;;;1.33;80.48;101525.88;4990622;28;19918;-86
2022/01/28 19:55:23;;;;;;;;;;;;;;;1.34;80.39;101517.19;4974217;28;19932;-86
2022/01/28 19:57:48;;;;;;;;;;;;;;;1.32;80.22;101524.09;4989266;28;19972;-86
2022/01/28 20:00:14;;;;;;;;;;;;;;;1.33;79.95;101525.88;4990432;28;19998;-84
2022/01/28 20:02:40;;;;;;;;;;;;;;;1.34;79.64;101521.50;4991734;28;20031;-88
2022/01/28 20:05:06;;;;;;;;;;;;;;;1.36;79.65;101525.06;4992691;28;19921;-86
2022/01/28 20:07:31;;;;;;;;;;;;;;;1.35;79.58;101518.06;4991992;28;20016;-85
2022/01/28 20:09:58;;;;;;;;;;;;;;;1.36;79.50;101519.84;4992363;28;19982;-85
2022/01/28 20:12:24;;;;;;;;;;;;;;;1.34;79.49;101505.84;4990143;28;20332;-85
2022/01/28 20:14:50;;;;;;;;;;;;;;;1.35;79.12;101497.16;4991144;28;19922;-86
2022/01/28 20:17:15;;;;;;;;;;;;;;;1.35;78.88;101487.59;4992106;28;20288;-84
2022/01/28 20:19:41;;;;;;;;;;;;;;;1.38;78.91;101478.94;4990292;28;19924;-86
2022/01/28 20:22:06;;;;;;;;;;;;;;;1.36;78.73;101484.13;4990733;28;19926;-86
2022/01/28 20:24:31;;;;;;;;;;;;;;;1.39;78.57;101476.38;4992293;28;19932;-84
2022/01/28 20:26:57;;;;;;;;;;;;;;;1.39;78.63;101478.13;4991676;28;19932;-85
2022/01/28 20:29:22;;;;;;;;;;;;;;;1.39;78.49;101478.13;4990702;28;19937;-85
2022/01/28 20:31:48;;;;;;;;;;;;;;;1.40;78.41;101474.63;4991610;28;20324;-86
2022/01/28 20:34:13;;;;;;;;;;;;;;;1.40;78.35;101469.41;4988355;28;19944;-86
2022/01/28 20:36:38;;;;;;;;;;;;;;;1.41;78.21;101465.97;4991255;28;20430;-86
2022/01/28 20:39:05;;;;;;;;;;;;;;;1.41;78.09;101464.22;4973894;28;19922;-85
2022/01/28 20:41:30;;;;;;;;;;;;;;;1.43;78.04;101469.47;4973315;28;19937;-85
2022/01/28 20:43:55;;;;;;;;;;;;;;;1.43;77.93;101464.25;4990604;28;19992;-86
2022/01/28 20:46:21;;;;;;;;;;;;;;;1.42;77.87;101462.47;4991051;28;19937;-86
2022/01/28 20:48:46;;;;;;;;;;;;;;;1.44;77.98;101466.91;4991557;28;19929;-85
2022/01/28 20:51:12;;;;;;;;;;;;;;;1.45;77.97;101465.16;4990772;28;19957;-86
2022/01/28 20:53:38;;;;;;;;;;;;;;;1.45;77.96;101466.06;4990736;28;19925;-85
2022/01/28 20:56:03;;;;;;;;;;;;;;;1.49;77.61;101466.13;4991280;28;19922;-86
2022/01/28 20:58:29;;;;;;;;;;;;;;;1.52;77.46;101454.00;4989900;28;19928;-87
2022/01/28 21:00:54;;;;;;;;;;;;;;;1.49;77.37;101463.50;4990455;28;20023;-86
2022/01/28 21:03:19;;;;;;;;;;;;;;;1.55;77.48;101474.97;4990053;28;19932;-86
2022/01/28 21:05:44;;;;;;;;;;;;;;;1.55;77.49;101453.19;4972717;28;19921;-87
2022/01/28 21:08:12;;;;;;;;;;;;;;;1.52;77.16;101461.84;4991845;28;19922;-86
2022/01/28 21:10:37;;;;;;;;;;;;;;;1.55;77.22;101474.97;4972966;28;19956;-85